Time;durP1;ratioP1;P1;durP2;ratioP2;P2;SDS_P1;SDS_P2;PMS_P1;PMS_P2;Temp;Humidity;BMP_temperature;BMP_pressure;BME280_temperature;BME280_humidity;BME280_pressure;Samples;Min_cycle;Max_cycle;Signal;HPM_P1;HPM_P2
2023/09/02 00:00:03;;;;;;;10.77;8.18;;;;;;;;;;10260533;28;20593;-70
2023/09/02 00:04:59;;;;;;;8.85;7.95;;;;;;;;;;10251291;28;20489;-72
2023/09/02 00:09:57;;;;;;;9.60;8.65;;;;;;;;;;10266866;28;20056;-71
2023/09/02 00:14:54;;;;;;;9.80;8.88;;;;;;;;;;10263636;28;21359;-71
2023/09/02 00:19:50;;;;;;;12.40;9.05;;;;;;;;;;10257865;28;20505;-71
2023/09/02 00:24:46;;;;;;;9.55;8.55;;;;;;;;;;10263711;28;20401;-73
2023/09/02 00:29:43;;;;;;;11.73;9.18;;;;;;;;;;10264114;28;20056;-73
2023/09/02 00:34:39;;;;;;;11.32;9.10;;;;;;;;;;10259431;28;20397;-71
2023/09/02 00:39:36;;;;;;;10.80;9.07;;;;;;;;;;10263821;28;20106;-72
2023/09/02 00:44:34;;;;;;;10.23;8.68;;;;;;;;;;10241548;28;20534;-72
2023/09/02 00:49:33;;;;;;;12.13;9.80;;;;;;;;;;10254446;28;20528;-72
2023/09/02 00:54:30;;;;;;;10.88;9.43;;;;;;;;;;10255720;28;20419;-72
2023/09/02 01:04:38;;;;;;;11.55;9.02;;;;;;;;;;10188282;28;20609;-71
2023/09/02 01:09:34;;;;;;;10.70;9.38;;;;;;;;;;10187566;28;20042;-72
2023/09/02 01:14:31;;;;;;;11.13;8.70;;;;;;;;;;10188439;28;20050;-72
2023/09/02 01:19:28;;;;;;;12.90;9.85;;;;;;;;;;10179520;28;20092;-72
2023/09/02 01:24:43;;;;;;;12.20;9.40;;;;;;;;;;10171297;28;20112;-72
2023/09/02 01:29:46;;;;;;;10.23;9.13;;;;;;;;;;10175997;28;20054;-72
2023/09/02 01:34:44;;;;;;;12.35;9.60;;;;;;;;;;10181458;28;20046;-71
2023/09/02 01:39:42;;;;;;;12.60;9.20;;;;;;;;;;10175545;28;20042;-71
2023/09/02 01:44:39;;;;;;;10.70;9.32;;;;;;;;;;10176724;28;20081;-70
2023/09/02 01:49:36;;;;;;;10.95;9.35;;;;;;;;;;10179233;28;20061;-71
2023/09/02 01:54:33;;;;;;;11.05;9.90;;;;;;;;;;10173299;28;20514;-71
2023/09/02 01:59:29;;;;;;;11.55;9.48;;;;;;;;;;10164104;28;20068;-71
2023/09/02 02:04:38;;;;;;;10.10;9.07;;;;;;;;;;10160516;28;20050;-71
2023/09/02 02:09:42;;;;;;;13.05;10.00;;;;;;;;;;10160838;28;20054;-71
2023/09/02 02:14:38;;;;;;;12.38;10.13;;;;;;;;;;10172109;28;20165;-71
2023/09/02 02:19:35;;;;;;;14.95;10.45;;;;;;;;;;10175884;28;20050;-71
2023/09/02 02:24:31;;;;;;;10.77;9.68;;;;;;;;;;10178332;28;20046;-71
2023/09/02 02:29:28;;;;;;;13.52;9.93;;;;;;;;;;10171201;28;20062;-72
2023/09/02 02:34:24;;;;;;;11.05;10.02;;;;;;;;;;10186922;28;20050;-72
2023/09/02 02:39:20;;;;;;;11.27;10.18;;;;;;;;;;10182376;28;20057;-71
2023/09/02 02:44:17;;;;;;;10.02;8.98;;;;;;;;;;10183800;28;20079;-71
2023/09/02 02:49:13;;;;;;;11.60;9.52;;;;;;;;;;10182936;28;20537;-71
2023/09/02 02:54:09;;;;;;;10.43;9.43;;;;;;;;;;10176350;28;20066;-71
2023/09/02 02:59:05;;;;;;;10.73;9.63;;;;;;;;;;10183604;28;20042;-70
2023/09/02 03:04:02;;;;;;;10.88;9.63;;;;;;;;;;10178800;28;20046;-71
2023/09/02 03:08:58;;;;;;;10.38;9.25;;;;;;;;;;10156262;28;20050;-70
2023/09/02 03:13:56;;;;;;;14.60;10.32;;;;;;;;;;10174156;28;20042;-71
2023/09/02 03:18:52;;;;;;;11.05;9.95;;;;;;;;;;10191261;28;20065;-71
2023/09/02 03:23:49;;;;;;;10.95;9.88;;;;;;;;;;10183233;28;20043;-71
2023/09/02 03:28:45;;;;;;;11.85;9.80;;;;;;;;;;10185475;28;20609;-70
2023/09/02 03:33:41;;;;;;;12.90;10.90;;;;;;;;;;10181580;28;20438;-70
2023/09/02 03:43:50;;;;;;;12.00;9.93;;;;;;;;;;9157808;26;20045;-71
2023/09/02 03:48:48;;;;;;;11.13;9.98;;;;;;;;;;10264130;28;20049;-70
2023/09/02 03:53:44;;;;;;;11.30;9.52;;;;;;;;;;10269760;28;20045;-71
2023/09/02 03:58:41;;;;;;;11.27;10.02;;;;;;;;;;10252814;28;20053;-72
2023/09/02 04:03:37;;;;;;;13.43;10.38;;;;;;;;;;10266094;28;20047;-72
2023/09/02 04:08:34;;;;;;;12.05;10.52;;;;;;;;;;10260490;28;20045;-72
2023/09/02 04:13:31;;;;;;;10.80;9.70;;;;;;;;;;10249104;28;20041;-71
2023/09/02 04:18:27;;;;;;;11.43;9.95;;;;;;;;;;10267417;28;20065;-71
2023/09/02 04:23:23;;;;;;;10.75;9.65;;;;;;;;;;10258345;28;20856;-71
2023/09/02 04:28:20;;;;;;;12.20;10.68;;;;;;;;;;10259841;28;20060;-71
2023/09/02 04:33:16;;;;;;;12.73;10.40;;;;;;;;;;10264307;28;20413;-71
2023/09/02 04:38:14;;;;;;;11.88;10.55;;;;;;;;;;10252700;28;20128;-71
2023/09/02 04:43:12;;;;;;;12.15;9.98;;;;;;;;;;10251410;28;20048;-71
2023/09/02 04:48:09;;;;;;;10.75;9.13;;;;;;;;;;10256768;28;20504;-71
2023/09/02 04:53:07;;;;;;;11.95;10.65;;;;;;;;;;10257611;28;20103;-72
2023/09/02 04:58:03;;;;;;;13.68;10.32;;;;;;;;;;10234333;28;20600;-71
2023/09/02 05:03:08;;;;;;;11.40;9.90;;;;;;;;;;10238002;22;20069;-71
2023/09/02 05:08:13;;;;;;;11.80;10.57;;;;;;;;;;10222873;28;20097;-71
2023/09/02 05:13:09;;;;;;;10.75;9.70;;;;;;;;;;10190203;28;20081;-72
2023/09/02 05:18:06;;;;;;;12.05;10.77;;;;;;;;;;10182405;28;20109;-72
2023/09/02 05:23:02;;;;;;;11.63;10.43;;;;;;;;;;10191250;28;20130;-72
2023/09/02 05:27:58;;;;;;;11.25;10.10;;;;;;;;;;10187919;28;20041;-72
2023/09/02 05:32:55;;;;;;;12.98;11.50;;;;;;;;;;10191856;28;20484;-71
2023/09/02 05:37:51;;;;;;;13.27;11.90;;;;;;;;;;10178881;28;20093;-72
2023/09/02 05:42:48;;;;;;;12.68;11.30;;;;;;;;;;10177433;28;20045;-72
2023/09/02 05:47:44;;;;;;;14.60;11.48;;;;;;;;;;10177172;28;20046;-73
2023/09/02 05:52:40;;;;;;;12.85;11.45;;;;;;;;;;10176793;28;20813;-72
2023/09/02 05:57:37;;;;;;;12.85;11.60;;;;;;;;;;10166399;28;20076;-72
2023/09/02 06:02:39;;;;;;;12.77;11.63;;;;;;;;;;10243703;23;20053;-72
2023/09/02 06:07:36;;;;;;;13.70;12.30;;;;;;;;;;10262789;28;20156;-72
2023/09/02 06:12:32;;;;;;;14.98;13.52;;;;;;;;;;10240810;28;20048;-72
2023/09/02 06:17:30;;;;;;;13.88;12.57;;;;;;;;;;10240085;28;20077;-71
2023/09/02 06:22:55;;;;;;;15.68;14.18;;;;;;;;;;10320768;22;20144;-74
2023/09/02 06:28:24;;;;;;;14.32;13.02;;;;;;;;;;10214866;28;20052;-73
2023/09/02 06:38:57;;;;;;;16.20;14.10;;;;;;;;;;10150534;28;20106;-73
2023/09/02 06:43:53;;;;;;;19.25;14.95;;;;;;;;;;10160665;28;20073;-73
2023/09/02 06:48:49;;;;;;;15.32;13.77;;;;;;;;;;10168857;28;20112;-73
2023/09/02 06:53:46;;;;;;;13.70;12.50;;;;;;;;;;10163923;28;20680;-73
2023/09/02 06:58:43;;;;;;;14.55;13.10;;;;;;;;;;10173531;28;20106;-73
2023/09/02 07:03:40;;;;;;;14.98;13.38;;;;;;;;;;10172331;28;20061;-73
2023/09/02 07:08:36;;;;;;;12.55;11.30;;;;;;;;;;10187507;28;20046;-72
2023/09/02 07:13:32;;;;;;;14.77;13.38;;;;;;;;;;10225079;23;20045;-73
2023/09/02 07:18:29;;;;;;;13.10;12.00;;;;;;;;;;10237618;28;20501;-73
2023/09/02 07:23:29;;;;;;;13.00;11.63;;;;;;;;;;10277397;23;20044;-72
2023/09/02 07:28:25;;;;;;;11.23;10.25;;;;;;;;;;10311422;28;20051;-72
2023/09/02 07:33:23;;;;;;;9.57;8.68;;;;;;;;;;10306628;28;20045;-72
2023/09/02 07:38:19;;;;;;;9.95;8.95;;;;;;;;;;10291244;28;20052;-72
2023/09/02 07:54:04;;;;;;;10.88;9.18;;;;;;;;;;5923188;22;20048;-73
2023/09/02 08:04:32;;;;;;;8.30;7.55;;;;;;;;;;10269796;22;20521;-73
2023/09/02 08:09:28;;;;;;;7.53;6.78;;;;;;;;;;10241083;28;20125;-74
2023/09/02 08:14:24;;;;;;;8.52;6.80;;;;;;;;;;10242469;28;20061;-73
2023/09/02 08:24:32;;;;;;;8.10;6.60;;;;;;;;;;7371800;22;20050;-72
2023/09/02 08:34:41;;;;;;;7.78;5.45;;;;;;;;;;10240871;23;20623;-72
2023/09/02 08:56:04;;;;;;;5.82;5.32;;;;;;;;;;10387835;22;20448;-73
2023/09/02 09:12:25;;;;;;;5.78;4.88;;;;;;;;;;10346433;22;20549;-74
2023/09/02 09:17:23;;;;;;;5.30;4.80;;;;;;;;;;10216559;28;20049;-73
2023/09/02 09:22:19;;;;;;;5.68;5.10;;;;;;;;;;10184660;28;20049;-73
2023/09/02 09:27:17;;;;;;;5.82;4.82;;;;;;;;;;10161265;28;20077;-73
2023/09/02 09:32:14;;;;;;;5.22;4.70;;;;;;;;;;10165160;28;20103;-74
2023/09/02 09:37:10;;;;;;;6.72;5.18;;;;;;;;;;10174286;28;20479;-73
2023/09/02 09:42:09;;;;;;;5.18;4.78;;;;;;;;;;10149880;28;20054;-73
2023/09/02 09:47:07;;;;;;;5.20;4.70;;;;;;;;;;10159102;28;20587;-73
2023/09/02 10:21:39;;;;;;;5.70;5.20;;;;;;;;;;10213426;28;20133;-73
2023/09/02 10:26:48;;;;;;;6.82;5.85;;;;;;;;;;10211629;28;20063;-74
2023/09/02 10:31:48;;;;;;;6.15;5.65;;;;;;;;;;10225731;28;20060;-74
2023/09/02 10:36:47;;;;;;;5.60;5.10;;;;;;;;;;10227077;28;20243;-73
2023/09/02 10:41:44;;;;;;;6.22;5.63;;;;;;;;;;10232197;28;20107;-74
2023/09/02 10:46:43;;;;;;;6.47;5.43;;;;;;;;;;10213568;28;20053;-73
2023/09/02 10:51:41;;;;;;;6.53;5.20;;;;;;;;;;10210784;28;20259;-74
2023/09/02 10:56:37;;;;;;;5.85;5.25;;;;;;;;;;10229224;28;20061;-73
2023/09/02 11:01:49;;;;;;;6.03;5.43;;;;;;;;;;10229797;28;20053;-73
2023/09/02 11:07:04;;;;;;;6.15;5.55;;;;;;;;;;10217808;28;20053;-73
2023/09/02 11:12:58;;;;;;;6.22;5.68;;;;;;;;;;10471456;22;20092;-73
2023/09/02 11:17:36;;;;;;;6.68;6.18;;;;;;;;;;10183110;28;20054;-73
2023/09/02 11:22:51;;;;;;;7.00;6.30;;;;;;;;;;10169905;28;20077;-73
2023/09/02 11:27:48;;;;;;;6.45;5.95;;;;;;;;;;10157705;28;20134;-74
2023/09/02 11:33:38;;;;;;;;;;;;;;;;;;;;;
2023/09/02 11:44:11;;;;;;;6.72;6.22;;;;;;;;;;10137542;28;20043;-74
2023/09/02 11:49:10;;;;;;;8.02;6.50;;;;;;;;;;10146741;28;20046;-73
2023/09/02 11:54:07;;;;;;;6.80;6.20;;;;;;;;;;10133055;28;20061;-73
2023/09/02 11:59:03;;;;;;;6.80;6.20;;;;;;;;;;10148573;28;20498;-74
2023/09/02 12:04:00;;;;;;;7.72;6.00;;;;;;;;;;10145638;28;20486;-72
2023/09/02 12:14:02;;;;;;;7.55;6.13;;;;;;;;;;10343564;22;20073;-72
2023/09/02 12:36:13;;;;;;;;;;;;;;;;;;;;;
2023/09/02 12:53:27;;;;;;;5.60;5.10;;;;;;;;;;10168548;28;20071;-73
2023/09/02 12:58:23;;;;;;;5.55;5.05;;;;;;;;;;10294519;28;20188;-73
2023/09/02 13:03:19;;;;;;;6.60;5.38;;;;;;;;;;10299784;28;20049;-73
2023/09/02 13:08:16;;;;;;;5.35;4.85;;;;;;;;;;10294298;28;20106;-73
2023/09/02 13:19:40;;;;;;;5.85;5.00;;;;;;;;;;10227216;28;20057;-73
2023/09/02 13:24:36;;;;;;;5.25;4.85;;;;;;;;;;10243632;28;20645;-73
2023/09/02 13:34:50;;;;;;;5.45;5.05;;;;;;;;;;10265794;28;20057;-72
2023/09/02 13:40:01;;;;;;;5.05;4.65;;;;;;;;;;10260059;28;20104;-72
2023/09/02 13:45:12;;;;;;;5.15;4.75;;;;;;;;;;10225353;28;20038;-73
2023/09/02 13:55:58;;;;;;;5.43;4.70;;;;;;;;;;10300058;28;20404;-73
2023/09/02 14:00:54;;;;;;;4.95;4.53;;;;;;;;;;10303944;28;20060;-73
2023/09/02 14:05:51;;;;;;;5.15;4.75;;;;;;;;;;10303071;28;20088;-74
2023/09/02 14:11:02;;;;;;;5.20;4.70;;;;;;;;;;10404516;22;20048;-73
2023/09/02 14:29:00;;;;;;;4.93;4.43;;;;;;;;;;9951338;29;20516;-73
2023/09/02 14:33:57;;;;;;;4.78;4.22;;;;;;;;;;10084439;28;20445;-74
2023/09/02 14:56:55;;;;;;;7.03;4.70;;;;;;;;;;10201089;28;20041;-75
2023/09/02 15:02:33;;;;;;;5.13;4.63;;;;;;;;;;10288720;28;20554;-74
2023/09/02 15:08:27;;;;;;;5.30;4.80;;;;;;;;;;10291464;28;20045;-72
2023/09/02 15:13:23;;;;;;;5.70;5.10;;;;;;;;;;10410705;22;20084;-72
2023/09/02 15:18:25;;;;;;;4.80;4.40;;;;;;;;;;10269184;28;20075;-73
2023/09/02 15:40:02;;;;;;;5.00;4.60;;;;;;;;;;10225741;28;20049;-74
2023/09/02 15:44:59;;;;;;;5.00;4.53;;;;;;;;;;10260154;28;20053;-73
2023/09/02 15:49:55;;;;;;;5.40;4.95;;;;;;;;;;10260613;28;20045;-73
2023/09/02 15:54:51;;;;;;;6.10;5.03;;;;;;;;;;10255554;28;20057;-74
2023/09/02 15:59:48;;;;;;;6.07;5.47;;;;;;;;;;10258570;28;21982;-73
2023/09/02 16:04:45;;;;;;;6.28;5.68;;;;;;;;;;10256247;28;20560;-73
2023/09/02 16:14:54;;;;;;;6.72;5.00;;;;;;;;;;2605356;22;20088;-73
2023/09/02 16:25:59;;;;;;;5.35;4.82;;;;;;;;;;9990699;29;20087;-73
2023/09/02 16:37:22;;;;;;;6.72;4.88;;;;;;;;;;10184819;28;20057;-73
2023/09/02 17:00:01;;;;;;;6.55;5.45;;;;;;;;;;10294893;28;20126;-73
2023/09/02 17:04:58;;;;;;;7.15;5.47;;;;;;;;;;10297065;28;20041;-73
2023/09/02 17:09:54;;;;;;;5.88;5.35;;;;;;;;;;10285867;28;20540;-74
2023/09/02 17:14:52;;;;;;;5.75;5.25;;;;;;;;;;10293795;28;20094;-73
2023/09/02 17:20:42;;;;;;;;;;;;;;;;;;;;;
2023/09/02 17:26:02;;;;;;;6.65;5.30;;;;;;;;;;10173450;28;20521;-74
2023/09/02 17:31:06;;;;;;;6.78;5.75;;;;;;;;;;10183092;28;20042;-73
2023/09/02 17:36:03;;;;;;;6.63;5.93;;;;;;;;;;10175674;28;20506;-73
2023/09/02 17:40:59;;;;;;;7.22;5.70;;;;;;;;;;10189915;28;20100;-74
2023/09/02 17:45:55;;;;;;;7.13;5.13;;;;;;;;;;10191430;28;20046;-73
2023/09/02 18:12:38;;;;;;;5.55;5.05;;;;;;;;;;10268829;28;20508;-73
2023/09/02 18:17:34;;;;;;;5.68;4.82;;;;;;;;;;10289633;28;20049;-73
2023/09/02 18:38:45;;;;;;;6.70;5.38;;;;;;;;;;5043615;23;20057;-72
2023/09/02 18:48:53;;;;;;;8.02;6.40;;;;;;;;;;10401507;22;20128;-73
2023/09/02 18:53:50;;;;;;;6.35;5.75;;;;;;;;;;10260136;28;20122;-72
2023/09/02 18:58:47;;;;;;;6.45;5.85;;;;;;;;;;10249300;28;20094;-72
2023/09/02 19:03:43;;;;;;;8.60;5.95;;;;;;;;;;10265098;28;20072;-72
2023/09/02 19:08:40;;;;;;;7.30;6.03;;;;;;;;;;10268402;28;20049;-71
2023/09/02 19:13:36;;;;;;;8.15;6.13;;;;;;;;;;10250071;28;20412;-71
2023/09/02 19:18:32;;;;;;;7.57;6.45;;;;;;;;;;10256211;28;20081;-72
2023/09/02 19:39:46;;;;;;;7.03;6.32;;;;;;;;;;10223790;28;20654;-71
2023/09/02 19:44:42;;;;;;;7.70;6.78;;;;;;;;;;10216370;28;20506;-72
2023/09/02 19:49:39;;;;;;;8.02;6.80;;;;;;;;;;10216637;28;20045;-72
2023/09/02 19:54:35;;;;;;;8.70;6.85;;;;;;;;;;10218688;28;20080;-74
2023/09/02 20:21:53;;;;;;;9.50;8.45;;;;;;;;;;10269402;28;20034;-72
2023/09/02 20:26:50;;;;;;;10.68;8.18;;;;;;;;;;10257853;28;20081;-73
2023/09/02 20:31:47;;;;;;;8.88;7.97;;;;;;;;;;10256061;28;20469;-72
2023/09/02 20:36:44;;;;;;;10.77;8.75;;;;;;;;;;10244269;28;20085;-73
2023/09/02 20:59:08;;;;;;;;;;;;;;;;;;;;;
2023/09/02 21:10:27;;;;;;;9.45;7.60;;;;;;;;;;10077318;28;20138;-73
2023/09/02 21:15:23;;;;;;;8.10;7.40;;;;;;;;;;10228288;28;20097;-73
2023/09/02 21:20:20;;;;;;;8.15;7.28;;;;;;;;;;10236583;22;20060;-73
2023/09/02 21:25:16;;;;;;;9.18;7.70;;;;;;;;;;10256627;28;20053;-72
2023/09/02 21:40:56;;;;;;;8.27;7.47;;;;;;;;;;2609403;26;20041;-72
2023/09/02 21:45:52;;;;;;;11.23;7.50;;;;;;;;;;10215968;28;20464;-72
2023/09/02 21:50:49;;;;;;;11.30;7.63;;;;;;;;;;10234839;28;20046;-72
2023/09/02 21:55:47;;;;;;;10.20;7.60;;;;;;;;;;10226396;28;20037;-72
2023/09/02 22:05:58;;;;;;;10.48;7.95;;;;;;;;;;4940957;22;20383;-72
2023/09/02 22:10:56;;;;;;;8.68;7.88;;;;;;;;;;10262124;28;20052;-73
2023/09/02 22:15:52;;;;;;;10.50;8.07;;;;;;;;;;10259705;28;20052;-72
2023/09/02 22:20:49;;;;;;;10.70;7.53;;;;;;;;;;10254564;28;20045;-72
2023/09/02 22:25:46;;;;;;;10.15;7.70;;;;;;;;;;10254718;28;20669;-72
2023/09/02 22:30:43;;;;;;;11.07;7.63;;;;;;;;;;10261900;28;20056;-72
2023/09/02 22:35:39;;;;;;;10.90;8.07;;;;;;;;;;10256988;28;20041;-72
2023/09/02 22:51:00;;;;;;;8.80;7.67;;;;;;;;;;8129601;22;20112;-72
2023/09/02 22:55:57;;;;;;;9.52;7.63;;;;;;;;;;10288421;28;20459;-72
2023/09/02 23:06:25;;;;;;;12.23;8.00;;;;;;;;;;10298146;22;20058;-72
2023/09/02 23:27:17;;;;;;;10.20;7.63;;;;;;;;;;2615646;22;20848;-72
2023/09/02 23:37:44;;;;;;;8.82;7.32;;;;;;;;;;2971452;22;21186;-71
2023/09/02 23:47:51;;;;;;;9.27;7.20;;;;;;;;;;7503647;22;20046;-72
2023/09/02 23:52:48;;;;;;;9.02;7.65;;;;;;;;;;10243701;28;20406;-72
2023/09/02 23:57:44;;;;;;;9.52;7.55;;;;;;;;;;10239754;28;20056;-72
